Time;durP1;ratioP1;P1;durP2;ratioP2;P2;SDS_P1;SDS_P2;PMS_P1;PMS_P2;Temp;Humidity;BMP_temperature;BMP_pressure;BME280_temperature;BME280_humidity;BME280_pressure;Samples;Min_cycle;Max_cycle;Signal;HPM_P1;HPM_P2
2023/03/12 00:00:31;;;;;;;7.57;5.60;;;;;;;-1.13;100.00;101080.22;1039791;28;20303;-74
2023/03/12 00:01:09;;;;;;;9.30;5.68;;;;;;;-1.01;100.00;101081.75;1038361;28;20305;-74
2023/03/12 00:01:41;;;;;;;6.15;5.03;;;;;;;-1.10;100.00;101090.41;1044725;28;20291;-74
2023/03/12 00:02:13;;;;;;;15.10;5.43;;;;;;;-1.01;100.00;101079.16;1043780;28;20287;-74
2023/03/12 00:02:44;;;;;;;6.70;5.00;;;;;;;-1.06;100.00;101085.75;1044621;28;20753;-74
2023/03/12 00:03:16;;;;;;;8.32;5.15;;;;;;;-0.99;100.00;101074.63;1047548;28;20389;-74
2023/03/12 00:03:48;;;;;;;9.68;5.80;;;;;;;-0.82;100.00;101077.50;1043483;28;20377;-74
2023/03/12 00:04:20;;;;;;;7.18;5.60;;;;;;;-0.91;100.00;101078.31;1041058;28;20296;-74
2023/03/12 00:04:52;;;;;;;6.72;5.40;;;;;;;-0.95;100.00;101080.38;1043864;28;20337;-74
2023/03/12 00:05:24;;;;;;;7.00;4.35;;;;;;;-0.97;100.00;101077.91;1040433;28;20300;-74
2023/03/12 00:05:56;;;;;;;6.75;5.07;;;;;;;-1.03;100.00;101075.84;1045482;28;20303;-74
2023/03/12 00:06:32;;;;;;;6.32;4.53;;;;;;;-1.04;100.00;101084.66;1047258;28;20305;-74
2023/03/12 00:07:05;;;;;;;9.23;5.20;;;;;;;-1.00;100.00;101075.56;1044341;28;20303;-74
2023/03/12 00:07:38;;;;;;;7.63;5.50;;;;;;;-1.01;100.00;101073.94;1047039;28;20299;-74
2023/03/12 00:08:10;;;;;;;8.57;4.95;;;;;;;-1.10;100.00;101074.72;1043677;28;20299;-74
2023/03/12 00:08:41;;;;;;;29.77;6.50;;;;;;;-1.11;100.00;101073.06;1047559;28;20302;-74
2023/03/12 00:09:13;;;;;;;5.55;4.75;;;;;;;-1.10;100.00;101074.72;1042673;28;20654;-74
2023/03/12 00:09:45;;;;;;;8.95;5.53;;;;;;;-1.13;100.00;101069.75;1042563;28;20307;-74
2023/03/12 00:10:17;;;;;;;5.88;5.32;;;;;;;-1.16;100.00;101064.81;1042799;28;20306;-74
2023/03/12 00:10:49;;;;;;;7.18;5.00;;;;;;;-1.16;100.00;101064.81;1042581;28;20869;-74
2023/03/12 00:11:20;;;;;;;7.47;4.60;;;;;;;-1.12;100.00;101062.75;1044402;28;20409;-74
2023/03/12 00:11:52;;;;;;;6.60;4.90;;;;;;;-1.03;100.00;101068.00;1047984;28;20314;-74
2023/03/12 00:12:24;;;;;;;6.03;5.13;;;;;;;-1.09;100.00;101060.72;1048262;28;20303;-74
2023/03/12 00:12:55;;;;;;;6.95;5.13;;;;;;;-1.03;100.00;101064.56;1046389;28;20803;-74
2023/03/12 00:13:27;;;;;;;7.47;4.85;;;;;;;-1.05;100.00;101072.53;1047996;28;20293;-74
2023/03/12 00:13:59;;;;;;;7.22;5.20;;;;;;;-1.12;100.00;101065.34;1048004;28;20306;-74
2023/03/12 00:14:31;;;;;;;6.50;4.57;;;;;;;-1.16;100.00;101067.41;1046251;28;20297;-74
2023/03/12 00:15:03;;;;;;;7.72;5.60;;;;;;;-0.94;100.00;101064.56;1043993;28;20330;-74
2023/03/12 00:15:36;;;;;;;8.23;4.90;;;;;;;-1.02;100.00;101067.03;1044258;28;20310;-74
2023/03/12 00:16:11;;;;;;;6.05;4.57;;;;;;;-1.01;100.00;101063.47;1043565;28;20322;-74
2023/03/12 00:16:43;;;;;;;8.05;5.18;;;;;;;-0.89;100.00;101063.31;1044222;28;20720;-74
2023/03/12 00:17:14;;;;;;;6.03;4.97;;;;;;;-0.74;100.00;101064.59;1043914;28;20354;-74
2023/03/12 00:17:46;;;;;;;4.93;4.10;;;;;;;-0.67;100.00;101070.91;1037795;28;20309;-74
2023/03/12 00:18:17;;;;;;;5.75;4.75;;;;;;;-0.74;100.00;101065.41;1036662;28;20295;-74
2023/03/12 00:18:51;;;;;;;10.40;4.97;;;;;;;-0.58;100.00;101064.03;1036005;28;20308;-74
2023/03/12 00:19:22;;;;;;;5.93;5.30;;;;;;;-0.56;100.00;101062.91;1033864;28;20313;-74
2023/03/12 00:19:54;;;;;;;6.40;4.95;;;;;;;-0.50;100.00;101061.56;1037399;28;20661;-74
2023/03/12 00:20:26;;;;;;;6.28;5.57;;;;;;;-0.67;100.00;101065.69;1037795;28;20296;-74
2023/03/12 00:20:58;;;;;;;5.45;4.47;;;;;;;-0.68;100.00;101058.81;1044678;28;20307;-74
2023/03/12 00:21:29;;;;;;;5.20;4.18;;;;;;;-0.60;100.00;101065.94;1045684;28;20364;-74
2023/03/12 00:22:01;;;;;;;13.55;4.78;;;;;;;-0.64;100.00;101070.63;1045035;28;20661;-74
2023/03/12 00:22:33;;;;;;;6.95;4.80;;;;;;;-0.65;100.00;101059.34;1048161;28;20306;-74
2023/03/12 00:23:05;;;;;;;5.10;4.60;;;;;;;-0.59;100.00;101067.59;1045884;28;20815;-74
2023/03/12 00:23:37;;;;;;;8.60;4.35;;;;;;;-0.54;100.00;101063.63;1046083;28;20306;-74
2023/03/12 00:24:08;;;;;;;16.27;5.28;;;;;;;-0.73;100.00;101061.00;1042230;28;20303;-74
2023/03/12 00:24:40;;;;;;;5.38;4.40;;;;;;;-0.78;100.00;101063.22;1046813;28;20302;-74
2023/03/12 00:25:14;;;;;;;6.35;4.65;;;;;;;-0.81;100.00;101060.88;1044666;28;20298;-74
2023/03/12 00:25:45;;;;;;;6.05;4.10;;;;;;;-0.89;100.00;101065.94;1042234;28;20296;-74
2023/03/12 00:26:18;;;;;;;7.03;5.28;;;;;;;-0.95;100.00;101059.47;1043634;28;20306;-74
2023/03/12 00:26:50;;;;;;;7.47;4.85;;;;;;;-0.94;100.00;101066.34;1040645;28;20304;-74
2023/03/12 00:27:22;;;;;;;5.15;4.55;;;;;;;-0.97;100.00;101062.22;1044847;28;20299;-74
2023/03/12 00:27:54;;;;;;;6.70;4.38;;;;;;;-0.99;100.00;101065.94;1045624;28;20303;-74
2023/03/12 00:28:25;;;;;;;7.95;4.90;;;;;;;-1.08;100.00;101062.38;1040533;28;20304;-74
2023/03/12 00:28:57;;;;;;;9.63;5.43;;;;;;;-1.12;100.00;101055.72;1039824;28;20830;-74
2023/03/12 00:29:29;;;;;;;5.53;4.35;;;;;;;-0.95;100.00;101062.09;1042156;28;20292;-74
2023/03/12 00:30:00;;;;;;;5.80;4.10;;;;;;;-0.84;100.00;101061.13;1040766;28;20362;-74
2023/03/12 00:30:32;;;;;;;7.47;5.00;;;;;;;-0.85;100.00;101062.09;1044345;28;20311;-74
2023/03/12 00:31:16;;;;;;;7.75;4.68;;;;;;;-1.06;100.00;101060.44;1044231;28;20310;-74
2023/03/12 00:31:50;;;;;;;5.03;3.97;;;;;;;-1.02;100.00;101059.19;1045882;28;20294;-74
2023/03/12 00:32:22;;;;;;;6.95;5.45;;;;;;;-0.87;100.00;101062.22;1041774;28;20310;-74
2023/03/12 00:32:53;;;;;;;6.43;4.82;;;;;;;-0.68;100.00;101064.03;1044187;28;20292;-74
2023/03/12 00:33:26;;;;;;;7.68;5.53;;;;;;;-0.72;100.00;101062.66;1045758;28;20824;-74
2023/03/12 00:33:59;;;;;;;7.40;5.05;;;;;;;-0.77;100.00;101059.63;1041710;28;20299;-74
2023/03/12 00:34:30;;;;;;;6.95;4.97;;;;;;;-0.78;100.00;101055.38;1040230;28;20295;-74
2023/03/12 00:35:03;;;;;;;5.93;5.32;;;;;;;-0.72;100.00;101065.28;1042499;28;20299;-74
2023/03/12 00:35:37;;;;;;;7.72;5.07;;;;;;;-0.89;100.00;101052.88;1040157;28;20322;-74
2023/03/12 00:36:09;;;;;;;5.57;5.07;;;;;;;-0.86;100.00;101050.81;1042389;28;20306;-74
2023/03/12 00:36:40;;;;;;;7.15;4.70;;;;;;;-0.69;100.00;101062.38;1048201;28;20306;-74
2023/03/12 00:37:12;;;;;;;5.78;4.85;;;;;;;-0.77;100.00;101051.78;1044830;28;20299;-74
2023/03/12 00:37:43;;;;;;;9.38;4.47;;;;;;;-0.87;100.00;101054.38;1041159;28;20312;-74
2023/03/12 00:38:15;;;;;;;6.15;5.38;;;;;;;-0.83;100.00;101052.31;1037605;28;20830;-74
2023/03/12 00:38:47;;;;;;;9.93;5.45;;;;;;;-0.65;100.00;101050.69;1038866;28;20307;-74
2023/03/12 00:39:19;;;;;;;9.13;5.18;;;;;;;-0.50;100.00;101046.69;1039304;28;20292;-74
2023/03/12 00:39:51;;;;;;;7.85;4.82;;;;;;;-0.41;100.00;101048.44;1044208;28;20737;-74
2023/03/12 00:40:23;;;;;;;8.07;5.78;;;;;;;-0.41;100.00;101051.06;1046485;28;20290;-74
2023/03/12 00:40:54;;;;;;;6.60;4.53;;;;;;;-0.40;100.00;101051.91;1044162;28;20326;-73
2023/03/12 00:41:27;;;;;;;7.32;4.20;;;;;;;-0.54;100.00;101050.56;1044391;28;20342;-74
2023/03/12 00:41:58;;;;;;;5.43;4.90;;;;;;;-0.51;100.00;101045.03;1037756;28;20293;-74
2023/03/12 00:42:30;;;;;;;8.70;4.78;;;;;;;-0.74;100.00;101047.09;1040041;28;20304;-74
2023/03/12 00:43:02;;;;;;;10.02;5.28;;;;;;;-0.77;100.00;101050.00;1039714;28;20699;-75
2023/03/12 00:43:34;;;;;;;7.88;5.07;;;;;;;-0.78;100.00;101052.75;1041138;28;20419;-74
2023/03/12 00:44:06;;;;;;;5.35;4.55;;;;;;;-0.74;100.00;101049.72;1043761;28;20303;-75
2023/03/12 00:44:38;;;;;;;7.55;5.32;;;;;;;-0.57;100.00;101044.75;1044319;28;20292;-75
2023/03/12 00:45:10;;;;;;;11.18;6.03;;;;;;;-0.76;100.00;101045.59;1048429;28;20865;-75
2023/03/12 00:45:42;;;;;;;9.38;4.90;;;;;;;-0.76;100.00;101042.97;1046652;28;20309;-75
2023/03/12 00:46:14;;;;;;;9.70;4.82;;;;;;;-0.56;100.00;101035.94;1040055;28;20312;-74
2023/03/12 00:46:46;;;;;;;4.57;4.13;;;;;;;-0.50;100.00;101048.47;1039767;28;20300;-74
2023/03/12 00:47:18;;;;;;;8.52;5.35;;;;;;;-0.41;100.00;101040.59;1040072;28;20296;-74
2023/03/12 00:47:50;;;;;;;8.15;4.80;;;;;;;-0.31;100.00;101041.41;1033699;28;20316;-74
2023/03/12 00:48:21;;;;;;;5.60;4.63;;;;;;;-0.33;100.00;101043.34;1040450;28;20307;-75
2023/03/12 00:48:53;;;;;;;6.70;5.10;;;;;;;-0.29;100.00;101035.19;1042399;28;20653;-74
2023/03/12 00:49:25;;;;;;;8.05;4.75;;;;;;;-0.25;100.00;101039.22;1040433;28;20333;-74
2023/03/12 00:49:56;;;;;;;5.35;4.75;;;;;;;-0.25;100.00;101033.97;1047000;28;20298;-75
2023/03/12 00:50:28;;;;;;;9.23;5.00;;;;;;;-0.23;100.00;101037.28;1044325;28;20693;-74
2023/03/12 00:51:00;;;;;;;5.00;4.43;;;;;;;-0.23;100.00;101037.28;1043124;28;20303;-74
2023/03/12 00:51:31;;;;;;;8.43;5.47;;;;;;;-0.21;100.00;101037.97;1041604;28;20331;-75
2023/03/12 00:52:04;;;;;;;8.45;5.38;;;;;;;-0.21;100.00;101038.78;1042086;28;20808;-75
2023/03/12 00:52:35;;;;;;;5.85;4.68;;;;;;;-0.22;100.00;101025.84;1043464;28;20307;-74
2023/03/12 00:53:07;;;;;;;11.38;6.18;;;;;;;-0.25;100.00;101032.19;1045690;28;20337;-75
2023/03/12 00:53:38;;;;;;;5.13;4.63;;;;;;;-0.19;100.00;101031.63;1048696;28;20283;-75
2023/03/12 00:54:10;;;;;;;5.95;4.70;;;;;;;-0.34;100.00;101036.44;1041824;28;20346;-75
2023/03/12 00:54:42;;;;;;;6.57;5.15;;;;;;;-0.38;100.00;101031.66;1039688;28;20396;-74
2023/03/12 00:55:14;;;;;;;6.93;5.18;;;;;;;-0.46;100.00;101027.13;1038547;28;20296;-74
2023/03/12 00:55:45;;;;;;;6.18;4.85;;;;;;;-0.58;100.00;101033.44;1038800;28;20691;-75
2023/03/12 00:56:17;;;;;;;6.05;4.90;;;;;;;-0.67;100.00;101031.69;1038727;28;20686;-75
2023/03/12 00:56:48;;;;;;;15.52;5.65;;;;;;;-0.58;100.00;101030.84;1040222;28;20284;-74
2023/03/12 00:57:20;;;;;;;6.07;5.03;;;;;;;-0.49;100.00;101027.41;1044095;28;20298;-74
2023/03/12 00:57:52;;;;;;;5.93;5.40;;;;;;;-0.66;100.00;101034.16;1046753;28;20305;-74
2023/03/12 00:58:24;;;;;;;4.93;4.43;;;;;;;-0.67;100.00;101031.69;1046784;28;20818;-75
2023/03/12 00:58:55;;;;;;;6.70;5.38;;;;;;;-0.70;100.00;101029.34;1045729;28;20666;-74
2023/03/12 00:59:27;;;;;;;6.38;4.72;;;;;;;-0.78;100.00;101027.44;1043840;28;20300;-75
2023/03/12 00:59:59;;;;;;;7.47;4.18;;;;;;;-0.84;100.00;101024.50;1035520;28;20308;-75
2023/03/12 01:00:30;;;;;;;5.85;4.80;;;;;;;-0.90;100.00;101027.69;1032301;28;20310;-74
2023/03/12 01:01:02;;;;;;;4.75;3.80;;;;;;;-0.87;100.00;101030.03;1032236;28;20301;-75
2023/03/12 01:01:34;;;;;;;6.43;4.70;;;;;;;-0.76;100.00;101024.69;1032355;28;20309;-75
2023/03/12 01:02:07;;;;;;;7.00;6.18;;;;;;;-0.69;100.00;101015.31;1039262;28;20288;-75
2023/03/12 01:02:39;;;;;;;7.00;4.75;;;;;;;-0.64;100.00;101018.31;1038252;28;20651;-74
2023/03/12 01:03:11;;;;;;;5.50;4.30;;;;;;;-0.72;100.00;101012.97;1039741;28;20304;-74
2023/03/12 01:03:42;;;;;;;6.65;5.60;;;;;;;-0.63;100.00;101019.97;1041617;28;20295;-75
2023/03/12 01:04:16;;;;;;;5.53;4.75;;;;;;;-0.81;100.00;101021.66;1039320;28;20300;-75
2023/03/12 01:04:48;;;;;;;8.48;4.78;;;;;;;-0.84;100.00;101016.66;1044252;28;20303;-75
2023/03/12 01:05:20;;;;;;;7.25;4.35;;;;;;;-0.77;100.00;101021.22;1042835;28;20306;-75
2023/03/12 01:05:54;;;;;;;11.52;4.45;;;;;;;-0.93;100.00;101016.53;1044275;28;20839;-75
2023/03/12 01:06:26;;;;;;;7.40;4.80;;;;;;;-0.84;100.00;101014.06;1039130;28;20801;-75
2023/03/12 01:06:58;;;;;;;9.13;5.10;;;;;;;-0.74;100.00;101014.91;1039823;28;20378;-75
2023/03/12 01:07:29;;;;;;;5.68;4.72;;;;;;;-0.78;100.00;101018.75;1039728;28;21984;-74
2023/03/12 01:08:03;;;;;;;9.38;5.28;;;;;;;-0.95;100.00;101021.09;1035328;28;20305;-74
2023/03/12 01:08:35;;;;;;;8.60;5.18;;;;;;;-0.90;100.00;101012.00;1041445;28;20366;-75
2023/03/12 01:09:08;;;;;;;5.45;4.95;;;;;;;-0.86;100.00;101010.75;1043194;28;20299;-74
2023/03/12 01:09:39;;;;;;;7.57;5.20;;;;;;;-0.76;100.00;101011.59;1037565;28;20309;-75
2023/03/12 01:10:14;;;;;;;8.43;4.75;;;;;;;-0.68;100.00;101009.09;1042351;28;20895;-75
2023/03/12 01:10:46;;;;;;;7.95;5.75;;;;;;;-0.63;100.00;101007.72;1035754;28;20301;-75
2023/03/12 01:11:19;;;;;;;7.15;5.63;;;;;;;-0.67;100.00;101010.75;1037833;28;20301;-75
2023/03/12 01:11:51;;;;;;;7.20;5.05;;;;;;;-0.68;100.00;101015.16;1044033;28;20867;-75
2023/03/12 01:12:23;;;;;;;6.38;4.90;;;;;;;-0.72;100.00;101003.31;1044240;28;20358;-75
2023/03/12 01:12:54;;;;;;;8.00;5.45;;;;;;;-0.67;100.00;101010.75;1042763;28;20295;-74
2023/03/12 01:13:26;;;;;;;7.70;5.75;;;;;;;-0.72;100.00;101011.19;1042910;28;20300;-75
2023/03/12 01:13:59;;;;;;;7.28;5.25;;;;;;;-0.65;100.00;101008.81;1043658;28;20797;-75
2023/03/12 01:14:30;;;;;;;5.28;4.65;;;;;;;-0.62;100.00;101011.16;1042406;28;20804;-75
2023/03/12 01:15:03;;;;;;;6.75;4.53;;;;;;;-0.70;100.00;101013.66;1039471;28;20319;-75
2023/03/12 01:15:34;;;;;;;6.93;5.25;;;;;;;-0.58;100.00;101006.47;1040242;28;20339;-75
2023/03/12 01:16:06;;;;;;;5.95;5.43;;;;;;;-0.63;100.00;101010.34;1040421;28;20322;-74
2023/03/12 01:16:38;;;;;;;9.02;5.28;;;;;;;-0.65;100.00;101006.22;1047098;28;20297;-75
2023/03/12 01:17:10;;;;;;;7.80;5.18;;;;;;;-0.71;100.00;101006.78;1046069;28;20295;-74
2023/03/12 01:17:41;;;;;;;5.60;4.97;;;;;;;-0.71;100.00;101002.38;1044024;28;20291;-75
2023/03/12 01:18:13;;;;;;;8.65;4.95;;;;;;;-0.76;100.00;101006.38;1043452;28;20299;-74
2023/03/12 01:18:45;;;;;;;8.10;5.18;;;;;;;-0.61;100.00;101004.97;1041246;28;20295;-74
2023/03/12 01:19:16;;;;;;;7.63;5.38;;;;;;;-0.53;100.00;101004.28;1042363;28;20303;-74
2023/03/12 01:19:48;;;;;;;10.70;5.53;;;;;;;-0.52;100.00;101009.38;1040765;28;20306;-75
2023/03/12 01:20:21;;;;;;;6.10;5.25;;;;;;;-0.49;100.00;101001.25;1046487;28;20291;-74
2023/03/12 01:20:53;;;;;;;9.43;5.18;;;;;;;-0.47;100.00;101007.16;1044287;28;20279;-74
2023/03/12 01:21:26;;;;;;;7.05;5.43;;;;;;;-0.60;100.00;101003.16;1041639;28;20307;-74
2023/03/12 01:21:58;;;;;;;8.80;5.03;;;;;;;-0.69;100.00;101004.84;1036552;28;20896;-74
2023/03/12 01:22:29;;;;;;;7.07;5.88;;;;;;;-0.76;100.00;101009.81;1035750;28;20296;-74
2023/03/12 01:23:01;;;;;;;7.50;5.65;;;;;;;-0.78;100.00;101006.50;1038171;28;20683;-75
2023/03/12 01:23:33;;;;;;;6.82;5.47;;;;;;;-0.83;100.00;101010.47;1037271;28;20771;-74
2023/03/12 01:24:05;;;;;;;7.32;5.40;;;;;;;-0.85;100.00;101010.63;1042298;28;20299;-74
2023/03/12 01:24:37;;;;;;;9.05;5.75;;;;;;;-0.78;100.00;101000.44;1039919;28;20296;-74
2023/03/12 01:25:09;;;;;;;9.63;6.18;;;;;;;-0.65;100.00;101008.81;1038473;28;20303;-74
2023/03/12 01:25:41;;;;;;;5.32;4.82;;;;;;;-0.86;100.00;101005.53;1036413;28;20775;-74
2023/03/12 01:26:12;;;;;;;9.57;5.75;;;;;;;-0.81;100.00;101011.19;1042864;28;20299;-74
2023/03/12 01:26:44;;;;;;;7.75;6.28;;;;;;;-0.75;100.00;101010.63;1047735;28;20405;-74
2023/03/12 01:27:15;;;;;;;7.30;6.35;;;;;;;-0.75;100.00;101005.41;1045490;28;20354;-74
2023/03/12 01:27:47;;;;;;;6.88;5.45;;;;;;;-0.67;100.00;101006.34;1041393;28;20306;-74
2023/03/12 01:28:19;;;;;;;6.15;4.90;;;;;;;-0.73;100.00;101006.91;1036003;28;20309;-74
2023/03/12 01:28:50;;;;;;;10.60;5.45;;;;;;;-0.58;100.00;101015.13;1040568;28;20690;-74
2023/03/12 01:29:22;;;;;;;9.48;6.03;;;;;;;-0.53;100.00;101005.09;1039787;28;20350;-74
2023/03/12 01:29:54;;;;;;;9.07;5.53;;;;;;;-0.58;100.00;101007.28;1036631;28;20319;-74
2023/03/12 01:30:26;;;;;;;8.23;6.60;;;;;;;-0.57;100.00;101002.88;1043458;28;20307;-74
2023/03/12 01:31:05;;;;;;;7.57;6.30;;;;;;;-0.54;100.00;101007.88;1041844;28;20303;-74
2023/03/12 01:31:37;;;;;;;8.07;5.22;;;;;;;-0.39;100.00;101012.50;1044812;28;20287;-74
2023/03/12 01:32:08;;;;;;;8.15;5.15;;;;;;;-0.42;100.00;101006.72;1041355;28;20300;-74
2023/03/12 01:32:40;;;;;;;7.32;6.47;;;;;;;-0.62;100.00;101003.31;1046409;28;20294;-74
2023/03/12 01:33:12;;;;;;;7.38;5.88;;;;;;;-0.35;100.00;101008.63;1047125;28;20306;-74
2023/03/12 01:33:44;;;;;;;7.70;5.95;;;;;;;-0.38;100.00;101003.69;1048206;28;20792;-75
2023/03/12 01:34:16;;;;;;;8.05;6.43;;;;;;;-0.43;100.00;101005.91;1038150;28;20311;-74
2023/03/12 01:34:48;;;;;;;9.13;6.22;;;;;;;-0.50;100.00;101010.06;1036555;28;20854;-75
2023/03/12 01:35:20;;;;;;;8.95;5.57;;;;;;;-0.55;100.00;101001.78;1035414;28;20305;-75
2023/03/12 01:35:51;;;;;;;6.82;5.40;;;;;;;-0.62;100.00;101005.94;1028578;28;20298;-75
2023/03/12 01:36:26;;;;;;;9.45;5.55;;;;;;;-0.75;100.00;101000.16;1043619;28;20303;-74
2023/03/12 01:36:58;;;;;;;8.68;6.00;;;;;;;-0.75;100.00;101006.22;1043941;28;20374;-75
2023/03/12 01:37:31;;;;;;;8.02;5.80;;;;;;;-0.78;100.00;100990.00;1043996;28;20327;-74
2023/03/12 01:38:02;;;;;;;6.80;5.57;;;;;;;-0.75;100.00;101001.00;1040150;28;20297;-74
2023/03/12 01:38:34;;;;;;;7.68;5.32;;;;;;;-0.71;100.00;101001.53;1047879;28;20358;-74
2023/03/12 01:39:06;;;;;;;7.25;5.65;;;;;;;-0.60;100.00;100996.16;1048086;28;20297;-74
2023/03/12 01:39:37;;;;;;;6.95;6.05;;;;;;;-0.49;100.00;100990.78;1040114;28;20320;-74
2023/03/12 01:40:15;;;;;;;8.85;5.82;;;;;;;-0.41;100.00;100996.13;1039959;28;20806;-74
2023/03/12 01:40:46;;;;;;;7.20;6.05;;;;;;;-0.34;100.00;100993.75;1039563;28;20398;-75
2023/03/12 01:41:19;;;;;;;9.85;6.35;;;;;;;-0.21;100.00;100990.84;1042473;28;20329;-74
2023/03/12 01:41:52;;;;;;;6.63;5.93;;;;;;;-0.29;100.00;100995.94;1043284;28;20303;-74
2023/03/12 01:42:23;;;;;;;9.73;6.10;;;;;;;-0.18;100.00;100999.22;1046352;28;20307;-74
2023/03/12 01:42:56;;;;;;;7.47;5.20;;;;;;;-0.27;100.00;100991.38;1039687;28;20902;-74
2023/03/12 01:43:32;;;;;;;8.50;6.13;;;;;;;-0.29;100.00;100999.38;1039999;28;20391;-74
2023/03/12 01:44:05;;;;;;;11.25;6.30;;;;;;;-0.20;100.00;100997.72;1029296;28;20432;-74
2023/03/12 01:44:54;;;;;;;8.10;6.13;;;;;;;-0.14;100.00;100986.69;1029013;28;20842;-74
2023/03/12 01:46:11;;;;;;;10.15;5.53;;;;;;;-0.18;100.00;100993.16;1031352;28;20719;-74
2023/03/12 01:46:44;;;;;;;12.90;5.32;;;;;;;-0.05;100.00;100988.44;1038642;28;20311;-74
2023/03/12 01:47:26;;;;;;;10.32;5.90;;;;;;;-0.15;100.00;100983.22;1043572;28;20307;-74
2023/03/12 01:47:58;;;;;;;9.45;5.40;;;;;;;-0.07;100.00;100985.13;1044815;28;20037;-74
2023/03/12 01:48:36;;;;;;;6.82;5.82;;;;;;;-0.07;100.00;100979.91;1042191;28;20331;-74
2023/03/12 01:49:14;;;;;;;10.10;5.63;;;;;;;-0.15;100.00;100987.66;1044075;28;20299;-74
2023/03/12 01:49:47;;;;;;;8.57;6.07;;;;;;;-0.14;100.00;100990.13;1035649;28;20432;-75
2023/03/12 01:50:19;;;;;;;6.43;5.15;;;;;;;-0.12;100.00;100976.88;1040375;28;20782;-75
2023/03/12 01:50:50;;;;;;;8.63;6.38;;;;;;;-0.15;100.00;100982.41;1036883;28;20377;-75
2023/03/12 01:51:27;;;;;;;7.03;6.00;;;;;;;-0.17;100.00;100979.94;1031513;28;20791;-75
2023/03/12 01:51:58;;;;;;;11.40;5.90;;;;;;;-0.13;100.00;100976.06;1028638;28;20400;-75
2023/03/12 01:52:36;;;;;;;11.43;6.68;;;;;;;-0.13;100.00;100981.28;1030802;28;20312;-75
2023/03/12 01:53:08;;;;;;;9.07;5.47;;;;;;;-0.13;100.00;100977.84;1033463;28;20831;-74
2023/03/12 01:53:43;;;;;;;9.25;5.53;;;;;;;-0.05;100.00;100978.78;1040866;28;20845;-74
2023/03/12 01:54:18;;;;;;;8.27;5.45;;;;;;;-0.10;100.00;100980.19;1041817;28;20296;-74
2023/03/12 01:55:02;;;;;;;8.18;5.78;;;;;;;-0.09;100.00;100976.59;1048191;28;20305;-74
2023/03/12 01:55:35;;;;;;;7.30;6.05;;;;;;;-0.25;100.00;100979.00;1047890;28;20710;-74
2023/03/12 01:56:07;;;;;;;8.75;5.57;;;;;;;-0.15;100.00;100974.56;1044603;28;20303;-75
2023/03/12 01:56:40;;;;;;;8.95;5.88;;;;;;;-0.02;100.00;100972.44;1047616;28;20356;-74
2023/03/12 01:57:17;;;;;;;9.50;5.55;;;;;;;-0.10;100.00;100974.94;1039449;28;20307;-74
2023/03/12 01:57:51;;;;;;;8.70;5.90;;;;;;;-0.04;100.00;100975.19;1035068;28;20380;-74
2023/03/12 01:58:23;;;;;;;9.07;5.78;;;;;;;-0.02;100.00;100973.25;1035661;28;20305;-74
2023/03/12 01:58:58;;;;;;;9.68;6.18;;;;;;;-0.16;100.00;100983.38;1033773;28;20305;-74
2023/03/12 01:59:44;;;;;;;7.43;6.53;;;;;;;-0.20;100.00;100979.41;1035530;28;20362;-75
2023/03/12 02:00:20;;;;;;;8.82;5.88;;;;;;;-0.33;100.00;100985.75;1029673;28;20771;-74
2023/03/12 02:00:53;;;;;;;9.15;5.30;;;;;;;-0.18;100.00;100970.44;1034062;28;20305;-74
2023/03/12 02:01:26;;;;;;;7.65;6.00;;;;;;;-0.17;100.00;100973.88;1034081;28;20312;-74
2023/03/12 02:01:58;;;;;;;10.32;5.45;;;;;;;-0.08;100.00;100973.84;1033990;28;20309;-74
2023/03/12 02:02:31;;;;;;;8.32;6.22;;;;;;;-0.08;100.00;100973.84;1029386;28;20393;-74
2023/03/12 02:03:07;;;;;;;7.72;5.93;;;;;;;-0.14;100.00;100968.34;1031369;28;20313;-74
2023/03/12 02:03:40;;;;;;;9.55;5.63;;;;;;;-0.15;100.00;100971.94;1039366;28;20784;-74
2023/03/12 02:04:12;;;;;;;7.18;5.43;;;;;;;-0.06;100.00;100960.59;1042100;28;20299;-74
2023/03/12 02:04:45;;;;;;;6.63;5.45;;;;;;;0.05;100.00;100970.91;1040168;28;20320;-74
2023/03/12 02:05:24;;;;;;;13.45;5.57;;;;;;;0.10;100.00;100966.03;1038600;28;20300;-75
2023/03/12 02:06:02;;;;;;;7.25;6.07;;;;;;;0.12;100.00;100963.28;1039074;28;20303;-75
2023/03/12 02:06:51;;;;;;;11.10;5.25;;;;;;;0.11;100.00;100966.88;1043882;28;20295;-74
2023/03/12 02:07:22;;;;;;;8.77;6.45;;;;;;;0.19;100.00;100970.41;1044364;28;20401;-75
2023/03/12 02:07:54;;;;;;;9.07;6.47;;;;;;;0.19;100.00;100964.34;1044398;28;20327;-75
2023/03/12 02:08:26;;;;;;;8.57;5.40;;;;;;;0.04;100.00;100956.16;1045347;28;20314;-74
2023/03/12 02:09:00;;;;;;;6.57;5.45;;;;;;;0.16;100.00;100962.84;1047607;28;20302;-74
2023/03/12 02:09:35;;;;;;;15.13;6.43;;;;;;;0.20;100.00;100961.56;1043235;28;20304;-75
2023/03/12 02:10:07;;;;;;;8.38;6.15;;;;;;;0.19;100.00;100954.69;1042356;28;20292;-74
2023/03/12 02:10:39;;;;;;;6.40;5.80;;;;;;;0.12;100.00;100951.00;1041084;28;20881;-75
2023/03/12 02:11:11;;;;;;;8.32;5.97;;;;;;;0.11;100.00;100953.78;1038524;28;20319;-75
2023/03/12 02:11:43;;;;;;;7.85;5.88;;;;;;;-0.06;100.00;100955.34;1039703;28;20342;-74
2023/03/12 02:12:15;;;;;;;11.80;6.65;;;;;;;-0.13;100.00;100949.06;1039793;28;20304;-75
2023/03/12 02:12:47;;;;;;;12.52;5.43;;;;;;;-0.17;100.00;100952.94;1041009;28;20349;-74
2023/03/12 02:13:19;;;;;;;7.15;5.65;;;;;;;-0.21;100.00;100951.56;1043786;28;20832;-74
2023/03/12 02:13:51;;;;;;;10.82;6.63;;;;;;;-0.23;100.00;100951.72;1039504;28;20308;-75
2023/03/12 02:14:24;;;;;;;7.80;5.10;;;;;;;-0.12;100.00;100955.94;1032487;28;20302;-75
2023/03/12 02:14:56;;;;;;;6.68;5.32;;;;;;;-0.14;100.00;100957.88;1036015;28;20847;-74
2023/03/12 02:15:27;;;;;;;9.32;4.65;;;;;;;-0.19;100.00;100954.88;1039793;28;20319;-75
2023/03/12 02:16:00;;;;;;;7.50;5.15;;;;;;;-0.13;100.00;100964.75;1040214;28;20742;-74
2023/03/12 02:16:32;;;;;;;8.68;5.95;;;;;;;-0.15;100.00;100961.47;1039302;28;20303;-75
2023/03/12 02:17:05;;;;;;;6.32;5.55;;;;;;;-0.24;100.00;100965.78;1035841;28;20398;-75
2023/03/12 02:17:39;;;;;;;8.60;5.60;;;;;;;-0.16;100.00;100963.25;1035834;28;20305;-75
2023/03/12 02:18:15;;;;;;;8.02;6.18;;;;;;;-0.06;100.00;100965.84;1035826;28;20901;-75
2023/03/12 02:18:47;;;;;;;7.30;5.30;;;;;;;-0.13;100.00;100959.53;1043481;28;20421;-75
2023/03/12 02:19:44;;;;;;;6.45;5.53;;;;;;;-0.20;100.00;100964.53;1039637;28;20334;-74
2023/03/12 02:20:47;;;;;;;7.10;6.13;;;;;;;-0.24;100.00;100962.34;1034520;28;20337;-74
2023/03/12 02:21:24;;;;;;;8.60;5.45;;;;;;;-0.10;100.00;100959.25;1037042;28;20300;-74
2023/03/12 02:21:57;;;;;;;6.75;5.65;;;;;;;-0.17;100.00;100963.41;1034429;28;20297;-75
2023/03/12 02:22:29;;;;;;;6.60;5.38;;;;;;;-0.21;100.00;100962.06;1030113;28;20312;-74
2023/03/12 02:23:16;;;;;;;7.60;5.75;;;;;;;-0.43;100.00;100957.97;1031431;28;20309;-74
2023/03/12 02:24:12;;;;;;;6.85;5.18;;;;;;;-0.22;100.00;100958.59;1038060;28;20293;-74
2023/03/12 02:25:02;;;;;;;9.25;5.13;;;;;;;-0.17;100.00;100963.41;1038619;28;21079;-74
2023/03/12 02:25:34;;;;;;;9.98;5.65;;;;;;;-0.16;100.00;100959.81;1043594;28;20398;-75
2023/03/12 02:26:06;;;;;;;12.98;5.38;;;;;;;-0.12;100.00;100963.78;1043832;28;20377;-75
2023/03/12 02:26:40;;;;;;;6.07;4.70;;;;;;;-0.12;100.00;100961.19;1032868;28;20440;-74
2023/03/12 02:27:12;;;;;;;5.35;4.65;;;;;;;-0.22;100.00;100965.63;1032050;28;20448;-75
2023/03/12 02:27:44;;;;;;;6.47;5.43;;;;;;;-0.13;100.00;100959.53;1033780;28;20463;-74
2023/03/12 02:28:19;;;;;;;8.52;5.35;;;;;;;-0.26;100.00;100959.03;1033527;28;20305;-75
2023/03/12 02:28:51;;;;;;;8.40;5.65;;;;;;;-0.27;100.00;100962.59;1035472;28;20304;-75
2023/03/12 02:29:25;;;;;;;7.80;5.40;;;;;;;-0.16;100.00;100962.44;1039440;28;20318;-75
2023/03/12 02:29:57;;;;;;;7.25;5.20;;;;;;;-0.27;100.00;100962.59;1037499;28;20301;-74
2023/03/12 02:30:29;;;;;;;6.20;5.30;;;;;;;-0.27;100.00;100959.97;1042159;28;20295;-74
2023/03/12 02:31:03;;;;;;;6.15;5.45;;;;;;;-0.34;100.00;100968.41;1034819;28;20831;-75
2023/03/12 02:31:42;;;;;;;8.75;6.25;;;;;;;-0.16;100.00;100962.44;1042895;28;20311;-74
2023/03/12 02:32:20;;;;;;;5.90;5.18;;;;;;;-0.26;100.00;100957.25;1038024;28;20299;-75
2023/03/12 02:32:53;;;;;;;5.43;4.53;;;;;;;-0.24;100.00;100957.09;1037872;28;20365;-75
2023/03/12 02:33:26;;;;;;;10.52;6.18;;;;;;;-0.26;100.00;100965.09;1034481;28;20746;-75